Time;durP1;ratioP1;P1;durP2;ratioP2;P2;SDS_P1;SDS_P2;PMS_P1;PMS_P2;Temp;Humidity;BMP_temperature;BMP_pressure;BME280_temperature;BME280_humidity;BME280_pressure;Samples;Min_cycle;Max_cycle;Signal;HPM_P1;HPM_P2
2023/08/07 00:05:22;;;;;;;6.63;2.60;;;;;;;12.89;75.58;99948.72;20906417;28;20861;-83
2023/08/07 00:15:25;;;;;;;1.90;1.80;;;;;;;13.39;73.63;99945.50;20885101;28;20204;-84
2023/08/07 00:25:27;;;;;;;1.87;1.17;;;;;;;13.01;75.48;99945.88;20870740;28;20286;-83
2023/08/07 00:35:30;;;;;;;1.90;0.90;;;;;;;13.24;74.61;99943.41;20899108;28;20184;-83
2023/08/07 00:45:38;;;;;;;1.60;0.40;;;;;;;12.41;77.85;99960.81;20870646;28;20220;-82
2023/08/07 00:55:42;;;;;;;1.03;0.60;;;;;;;12.87;76.55;99963.19;20870283;28;20536;-81
2023/08/07 01:05:44;;;;;;;1.63;0.50;;;;;;;12.90;76.80;99962.50;20884900;28;20261;-83
2023/08/07 01:15:49;;;;;;;2.50;0.80;;;;;;;13.02;76.29;99983.44;20882764;28;20200;-83
2023/08/07 01:25:52;;;;;;;2.47;1.20;;;;;;;13.17;75.53;99988.38;20896770;28;20261;-83
2023/08/07 01:35:58;;;;;;;2.67;1.00;;;;;;;12.72;76.18;99980.88;20875450;28;20253;-82
2023/08/07 01:46:01;;;;;;;0.77;0.73;;;;;;;12.97;75.89;100002.28;20866092;28;20624;-83
2023/08/07 01:56:04;;;;;;;1.70;0.90;;;;;;;12.36;78.13;100001.34;20881006;28;20258;-83
2023/08/07 02:06:06;;;;;;;5.32;1.73;;;;;;;12.93;74.72;100001.34;21063708;28;20353;-83
2023/08/07 02:16:09;;;;;;;4.13;1.93;;;;;;;13.43;73.13;100005.78;21039507;28;20194;-83
2023/08/07 02:26:11;;;;;;;4.43;2.00;;;;;;;13.29;73.42;100008.13;21047666;28;20210;-82
2023/08/07 02:36:14;;;;;;;1.53;1.00;;;;;;;12.94;74.89;100014.28;21031026;28;20264;-82
2023/08/07 02:46:17;;;;;;;0.60;0.60;;;;;;;12.87;74.30;100016.84;21036040;28;20279;-84
2023/08/07 02:56:20;;;;;;;1.93;0.90;;;;;;;13.31;73.49;100006.59;21027842;28;20232;-84
2023/08/07 03:06:23;;;;;;;3.37;1.03;;;;;;;13.46;72.87;100013.56;21025125;28;20225;-83
2023/08/07 03:16:26;;;;;;;2.13;0.83;;;;;;;13.18;73.15;100018.28;21032376;28;20202;-82
2023/08/07 03:26:28;;;;;;;0.87;0.40;;;;;;;12.95;75.41;100015.94;21020815;28;20222;-83
2023/08/07 03:36:31;;;;;;;0.57;0.30;;;;;;;13.33;73.66;100021.22;21020819;28;20263;-83
2023/08/07 03:46:34;;;;;;;1.33;0.37;;;;;;;12.71;74.50;100032.03;21058682;28;20222;-82
2023/08/07 03:56:37;;;;;;;3.90;0.63;;;;;;;13.31;72.04;100028.38;21032128;28;20190;-83
2023/08/07 04:06:41;;;;;;;2.70;1.03;;;;;;;13.31;73.09;100039.69;21030834;28;20222;-82
2023/08/07 04:16:43;;;;;;;3.47;1.70;;;;;;;13.22;71.93;100037.00;20996236;28;20220;-81
2023/08/07 04:26:46;;;;;;;4.80;2.27;;;;;;;13.54;71.26;100032.38;21068532;28;20215;-83
2023/08/07 04:36:51;;;;;;;17.40;3.60;;;;;;;12.75;74.78;100047.91;21028552;28;20190;-82
2023/08/07 04:46:54;;;;;;;5.73;3.37;;;;;;;12.62;74.25;100055.53;21049029;28;20222;-83
2023/08/07 04:56:57;;;;;;;8.93;4.77;;;;;;;12.86;73.85;100057.56;21053605;28;20195;-86
2023/08/07 05:07:00;;;;;;;11.73;3.43;;;;;;;13.36;72.48;100059.28;21004970;28;20234;-86
2023/08/07 05:17:03;;;;;;;8.60;4.20;;;;;;;13.41;71.59;100055.38;21032698;28;20206;-83
2023/08/07 05:27:08;;;;;;;8.63;4.30;;;;;;;12.44;75.37;100068.16;21009678;28;20227;-82
2023/08/07 05:37:11;;;;;;;8.63;5.00;;;;;;;12.85;72.63;100072.06;21044791;28;20530;-82
2023/08/07 05:47:14;;;;;;;7.37;5.40;;;;;;;13.09;72.44;100068.44;21068824;28;20275;-82
2023/08/07 05:57:17;;;;;;;7.03;4.70;;;;;;;12.84;73.89;100088.19;21048106;28;20203;-83
2023/08/07 06:07:20;;;;;;;5.97;4.60;;;;;;;12.62;74.76;100088.56;21015821;28;20275;-84
2023/08/07 06:17:23;;;;;;;5.57;4.40;;;;;;;12.50;74.95;100085.72;21031841;28;20198;-82
2023/08/07 06:27:25;;;;;;;4.63;3.17;;;;;;;12.44;76.40;100113.31;21094187;28;20575;-83
2023/08/07 06:37:28;;;;;;;5.50;4.00;;;;;;;12.92;74.24;100112.66;21077249;28;20193;-83
2023/08/07 06:47:30;;;;;;;5.30;4.10;;;;;;;12.88;73.93;100119.34;21051160;28;20389;-84
2023/08/07 06:57:33;;;;;;;5.93;3.20;;;;;;;12.79;75.84;100147.69;21033398;28;20195;-83
2023/08/07 07:07:36;;;;;;;4.47;2.97;;;;;;;12.83;75.83;100143.00;21010586;28;20638;-83
2023/08/07 07:17:38;;;;;;;4.07;2.93;;;;;;;13.04;74.60;100159.88;21023594;28;20194;-83
2023/08/07 07:27:41;;;;;;;4.33;2.43;;;;;;;13.04;74.86;100176.00;21021238;28;20218;-84
2023/08/07 07:37:43;;;;;;;4.83;1.80;;;;;;;13.38;74.08;100184.13;21028696;28;20664;-82
2023/08/07 07:47:46;;;;;;;0.93;0.90;;;;;;;13.31;75.33;100184.66;21046432;28;20503;-84
2023/08/07 07:57:48;;;;;;;1.70;1.50;;;;;;;13.84;72.92;100210.28;21016772;28;20199;-84
2023/08/07 08:07:51;;;;;;;2.83;1.80;;;;;;;13.61;73.93;100213.56;21022944;28;20218;-83
2023/08/07 08:17:53;;;;;;;3.53;2.00;;;;;;;13.88;73.94;100233.84;21025704;28;20236;-83
2023/08/07 08:27:56;;;;;;;4.73;2.03;;;;;;;13.37;75.67;100247.47;21061942;28;20221;-82
2023/08/07 08:37:59;;;;;;;4.33;0.93;;;;;;;12.60;77.46;100258.28;21059231;28;20194;-83
2023/08/07 08:48:03;;;;;;;2.23;0.80;;;;;;;13.10;76.52;100276.31;21052729;28;20808;-85
2023/08/07 08:58:06;;;;;;;1.17;0.80;;;;;;;13.78;74.83;100302.16;21040215;28;20425;-84
2023/08/07 09:08:09;;;;;;;2.00;0.90;;;;;;;13.30;75.03;100303.69;21022363;28;20218;-83
2023/08/07 09:18:12;;;;;;;5.35;1.63;;;;;;;14.01;72.94;100306.22;21031146;28;20198;-83
2023/08/07 09:28:15;;;;;;;5.53;2.40;;;;;;;14.90;71.00;100304.25;21051506;28;20526;-81
2023/08/07 09:38:17;;;;;;;5.67;2.40;;;;;;;14.91;72.18;100317.22;21023827;28;20236;-82
2023/08/07 09:48:27;;;;;;;6.28;2.17;;;;;;;15.23;68.76;100323.03;21015270;28;20214;-81
2023/08/07 09:58:30;;;;;;;6.70;2.72;;;;;;;15.50;68.25;100333.53;21038908;28;20194;-82
2023/08/07 10:08:35;;;;;;;7.22;2.05;;;;;;;15.16;66.65;100329.34;21011196;28;20227;-81
2023/08/07 10:18:37;;;;;;;8.60;2.55;;;;;;;15.28;67.71;100351.97;21035240;28;20649;-82
2023/08/07 10:28:41;;;;;;;6.37;1.57;;;;;;;14.19;70.86;100372.75;21033714;28;20222;-83
2023/08/07 10:38:44;;;;;;;4.20;1.80;;;;;;;15.25;68.75;100374.53;21060395;28;20235;-82
2023/08/07 10:49:05;;;;;;;6.47;1.85;;;;;;;15.87;68.30;100364.56;21073791;28;20229;-82
2023/08/07 10:59:12;;;;;;;10.65;2.50;;;;;;;15.14;67.14;100368.53;21057617;28;20202;-82
2023/08/07 11:09:14;;;;;;;5.40;1.70;;;;;;;15.33;64.09;100379.25;21042819;28;20700;-82
2023/08/07 11:19:19;;;;;;;5.45;1.63;;;;;;;16.03;60.34;100374.75;21034197;28;20209;-83
2023/08/07 11:29:24;;;;;;;6.47;1.80;;;;;;;16.57;58.04;100382.66;21045885;28;20229;-83
2023/08/07 11:39:26;;;;;;;8.33;2.07;;;;;;;16.96;55.63;100375.03;21085493;28;20217;-83
2023/08/07 11:49:29;;;;;;;3.50;1.50;;;;;;;16.09;57.43;100389.50;21033807;28;20226;-83
2023/08/07 11:59:31;;;;;;;5.93;2.03;;;;;;;16.30;60.28;100401.41;21038476;28;20203;-82
2023/08/07 12:09:34;;;;;;;6.32;1.73;;;;;;;16.47;54.82;100401.06;21077383;28;20218;-83
2023/08/07 12:19:42;;;;;;;5.75;1.67;;;;;;;16.47;52.83;100389.69;21026982;28;20191;-84
2023/08/07 12:29:46;;;;;;;5.07;1.03;;;;;;;17.48;47.36;100393.69;21046292;28;20268;-83
2023/08/07 12:39:49;;;;;;;2.60;1.17;;;;;;;17.34;48.73;100416.13;21020648;28;20202;-84
2023/08/07 12:49:54;;;;;;;5.35;1.50;;;;;;;16.90;48.21;100412.63;21035077;28;20226;-83
2023/08/07 12:59:57;;;;;;;5.25;1.38;;;;;;;16.43;49.37;100411.50;21052354;28;20191;-83
2023/08/07 13:10:00;;;;;;;5.05;1.70;;;;;;;16.96;49.15;100429.06;21015355;28;20214;-84
2023/08/07 13:20:09;;;;;;;4.93;1.05;;;;;;;17.15;48.13;100433.94;21006589;28;20251;-82
2023/08/07 13:30:12;;;;;;;5.22;1.20;;;;;;;16.39;47.14;100432.47;21014382;28;20248;-83
2023/08/07 13:40:15;;;;;;;4.85;1.30;;;;;;;17.89;42.57;100427.06;21037190;28;20191;-84
2023/08/07 13:50:18;;;;;;;3.47;0.88;;;;;;;17.98;43.81;100429.69;21030546;28;20287;-83
2023/08/07 14:00:20;;;;;;;5.30;1.15;;;;;;;18.14;45.14;100426.72;21032367;28;20194;-84
2023/08/07 14:10:23;;;;;;;7.10;1.30;;;;;;;16.05;52.78;100468.06;21041874;28;20238;-84
2023/08/07 14:20:26;;;;;;;2.38;1.52;;;;;;;16.20;57.34;100481.47;21028284;28;20928;-84
2023/08/07 14:30:28;;;;;;;5.43;1.40;;;;;;;15.76;61.10;100484.28;21009295;28;20218;-83
2023/08/07 14:40:31;;;;;;;3.95;1.48;;;;;;;16.81;59.77;100478.22;21067377;28;20190;-82
2023/08/07 14:50:34;;;;;;;6.63;1.63;;;;;;;16.54;56.00;100473.47;21037161;28;20271;-84
2023/08/07 15:00:38;;;;;;;3.53;1.05;;;;;;;16.52;51.52;100486.00;21044368;28;20214;-83
2023/08/07 15:10:41;;;;;;;5.20;0.90;;;;;;;17.78;48.27;100482.94;21016851;28;20222;-83
2023/08/07 15:20:48;;;;;;;6.18;1.02;;;;;;;17.76;47.23;100476.81;21007689;28;20240;-84
2023/08/07 15:30:52;;;;;;;3.10;0.93;;;;;;;17.32;43.29;100481.09;21025681;28;20503;-83
2023/08/07 15:40:56;;;;;;;3.15;1.02;;;;;;;17.19;45.51;100484.03;21016674;28;20197;-84
2023/08/07 15:50:59;;;;;;;7.45;3.70;;;;;;;17.10;45.25;100476.91;21012717;28;20230;-84
2023/08/07 16:01:01;;;;;;;6.45;0.93;;;;;;;18.08;42.29;100479.50;21022943;28;20190;-82
2023/08/07 16:11:04;;;;;;;1.95;0.60;;;;;;;17.70;39.63;100486.81;21061890;28;20254;-84
2023/08/07 16:21:07;;;;;;;3.10;1.02;;;;;;;16.26;43.60;100496.22;21030974;28;20586;-84
2023/08/07 16:31:28;;;;;;;3.43;0.80;;;;;;;17.08;40.76;100499.19;21030355;28;20222;-84
2023/08/07 16:41:31;;;;;;;2.90;1.52;;;;;;;17.50;40.49;100493.72;21019866;28;20240;-83
2023/08/07 16:51:34;;;;;;;5.00;1.02;;;;;;;16.92;40.71;100502.03;21066194;28;20226;-81
2023/08/07 17:01:37;;;;;;;1.75;0.80;;;;;;;16.27;41.69;100507.22;21023638;28;20212;-86
2023/08/07 17:11:40;;;;;;;3.70;1.08;;;;;;;16.16;43.14;100514.59;20976440;28;20683;-85
2023/08/07 17:21:42;;;;;;;2.58;1.00;;;;;;;15.63;45.05;100519.50;21049968;28;20187;-82
2023/08/07 17:31:49;;;;;;;1.95;1.08;;;;;;;16.38;45.82;100511.16;21045564;28;20272;-82
2023/08/07 17:41:51;;;;;;;5.53;1.00;;;;;;;16.74;45.15;100500.78;21055083;28;20206;-84
2023/08/07 17:51:54;;;;;;;8.25;1.58;;;;;;;16.62;46.01;100498.88;20991888;28;20225;-86
2023/08/07 18:01:58;;;;;;;2.83;1.00;;;;;;;16.43;46.63;100498.72;20988523;28;20691;-84
2023/08/07 18:12:01;;;;;;;3.78;1.23;;;;;;;16.20;45.81;100492.81;20993664;28;20530;-84
2023/08/07 18:22:04;;;;;;;2.00;0.65;;;;;;;16.37;45.25;100497.34;21092087;28;20659;-81
2023/08/07 18:32:07;;;;;;;2.63;0.80;;;;;;;16.68;43.30;100502.25;21028501;28;20218;-78
2023/08/07 18:42:10;;;;;;;2.53;1.10;;;;;;;15.83;46.39;100516.91;21007419;28;20199;-80
2023/08/07 18:52:12;;;;;;;2.83;0.75;;;;;;;15.85;47.88;100523.03;20951850;28;20249;-80
2023/08/07 19:02:16;;;;;;;3.03;1.07;;;;;;;16.22;46.56;100507.50;20959297;28;20214;-79
2023/08/07 19:12:19;;;;;;;2.60;0.93;;;;;;;15.86;48.74;100508.47;20942857;28;20217;-82
2023/08/07 19:22:23;;;;;;;1.73;0.67;;;;;;;15.95;48.76;100519.69;20955144;28;20260;-81
2023/08/07 19:32:26;;;;;;;2.17;0.90;;;;;;;15.84;49.03;100513.69;20968888;28;20215;-80
2023/08/07 19:42:29;;;;;;;3.20;1.00;;;;;;;15.31;51.78;100529.03;20977805;28;20240;-81
2023/08/07 19:52:32;;;;;;;2.37;1.07;;;;;;;16.01;51.51;100513.38;21003000;28;20271;-81
2023/08/07 20:02:34;;;;;;;2.30;0.90;;;;;;;16.15;50.24;100516.63;21096966;27;20271;-80
2023/08/07 20:12:44;;;;;;;1.52;1.30;;;;;;;15.50;51.87;100506.53;21010649;28;20211;-82
2023/08/07 20:22:53;;;;;;;4.00;1.77;;;;;;;15.47;52.68;100510.09;21038374;28;20272;-80
2023/08/07 20:32:55;;;;;;;3.40;1.53;;;;;;;15.31;53.41;100500.69;21049515;28;20625;-80
2023/08/07 20:42:59;;;;;;;2.00;1.17;;;;;;;15.49;52.57;100493.53;21026222;28;20776;-81
2023/08/07 20:53:01;;;;;;;3.93;1.70;;;;;;;15.32;53.53;100483.31;21058368;28;20221;-79
2023/08/07 21:03:04;;;;;;;1.88;1.30;;;;;;;15.07;55.03;100491.00;21054004;28;20214;-80
2023/08/07 21:13:07;;;;;;;3.03;1.35;;;;;;;14.57;56.32;100490.50;21045940;28;20226;-80
2023/08/07 21:23:15;;;;;;;1.97;1.57;;;;;;;14.57;57.23;100482.00;21005212;28;20202;-82
2023/08/07 21:33:18;;;;;;;2.80;1.40;;;;;;;14.75;56.26;100469.28;21036981;28;20226;-81
2023/08/07 21:43:20;;;;;;;1.90;1.38;;;;;;;14.42;57.40;100462.91;21036074;28;20266;-81
2023/08/07 21:53:23;;;;;;;3.17;1.30;;;;;;;14.72;56.93;100447.34;21022350;28;20225;-81
2023/08/07 22:03:26;;;;;;;4.07;1.42;;;;;;;14.50;57.59;100451.47;21008526;28;20531;-79
2023/08/07 22:13:28;;;;;;;3.87;1.57;;;;;;;14.71;57.23;100445.69;21092436;28;20240;-79
2023/08/07 22:23:31;;;;;;;4.00;1.43;;;;;;;14.86;56.63;100442.13;21037749;28;20243;-78
2023/08/07 22:33:36;;;;;;;5.55;1.70;;;;;;;14.38;58.81;100451.44;20988882;28;20303;-79
2023/08/07 22:43:39;;;;;;;2.30;1.67;;;;;;;14.81;56.66;100438.72;21011556;28;20272;-78
2023/08/07 22:53:42;;;;;;;3.57;1.70;;;;;;;14.72;57.66;100441.66;21011754;28;20924;-78
2023/08/07 23:03:44;;;;;;;4.00;1.87;;;;;;;14.49;57.72;100432.00;20966445;28;20334;-80
2023/08/07 23:13:47;;;;;;;2.87;1.50;;;;;;;14.81;56.75;100414.03;20968709;28;20703;-80
2023/08/07 23:23:50;;;;;;;3.23;1.50;;;;;;;14.14;59.47;100412.59;20947351;28;20226;-78
2023/08/07 23:33:53;;;;;;;1.60;1.27;;;;;;;14.35;58.20;100406.84;20991126;28;20299;-79
2023/08/07 23:43:55;;;;;;;1.20;0.87;;;;;;;15.25;55.43;100385.88;20985020;28;20790;-79
2023/08/07 23:53:58;;;;;;;1.73;1.50;;;;;;;14.60;59.09;100365.19;20976580;28;20254;-78
